Karatsu, Japan
Current Conditions -  °F | °C
As of 2:00 AM on Monday 22 Dec 2014 (Local Time) from RJFS Reporting Station
Snow Showers Snow Showers  
Wind Chill: 28°   Ceiling: 2500
Heat Index: 36°   Visibility: 4mi
Dew Point: 30°   Wind: 12mph
Humidity: 81%   Direction: 280°W
Pressure: 30.15"   Gusts: NA
Location:  33.44°N, 129.97°E
Report Text: RJFS 211700Z 28010KT 6000 -SHRASN FEW009 SCT015 BKN025 02/M01 Q1021
Loading
Personal Weather Stations






























Interactive Weather Map New forecast layout! Learn more

10-Day Weather Forecast

Advertisements
Track Severe Weather on mobile